Kellerton, IA (50133)

10:53 PM CDT on July 31, 2014 (GMT -0500)
Lamoni Municipal (KLWD) Elev 1132 ft | 40.63 °N, 93.90 °W | Change Station

Current weather conditions updated 1 hour ago

Partly Cloudy
Partly Cloudy
73 °F
Feels Like 73 °F
N
4
Wind Variable Wind from SSE

Tomorrow is forecast to be nearly the same temperature as today. Showers and thunderstorms late.

Today
High -- | Low -- °F
--% Chance of Precip.
Yesterday
High -- | Low -- °F
Precip. -- in
6:12 AM 8:32 PM
Waxing Crescent, 23% visible
Pressure 30.03 in
Visibility 10.0 miles
Clouds Few 9000 ft
Dew Point 55 °F
Humidity 53%
Rainfall 0.00 in
Snow Depth Not available.
UV 0 out of 12
Pollen 7.30 out of 12
Air Quality Not available.
Flu Activity Not available.
METAR KLWD 010253Z AUTO 16003KT 10SM FEW090 23/13 A3005 RMK AO2 SLP167 T02280128 55003

More Conditions Fewer Conditions

Pressure 30.03 in
Visibility 10.0 miles
Clouds Few 9000 ft
Dew Point 55 °F
Humidity 53%
Rainfall 0.00 in
Snow Depth Not available.
UV 0 out of 12
Pollen 7.30 out of 12
Air Quality Not available.
Flu Activity Not available.
METAR KLWD 010253Z AUTO 16003KT 10SM FEW090 23/13 A3005 RMK AO2 SLP167 T02280128 55003

More Conditions Fewer Conditions

10-Day Weather Forecast

Almanac

Astronomy

Jul. 31, 2014 Rise Set
Actual Time 6:12 AM CDT 8:32 PM CDT
Civil Twilight 5:41 AM CDT 9:03 PM CDT
Nautical Twilight 5:03 AM CDT 9:41 PM CDT
Astronomical Twilight 4:21 AM CDT 10:22 PM CDT
Moon 10:41 AM CDT (7/31) 10:44 PM CDT (7/31)
Length of Visible Light 15h 21m
Length of Day
14h 20m
Tomorrow will be 2m 1s shorter.
Waxing Crescent, 23% of the Moon is Illuminated
Today
Waxing Crescent
Aug 3
First Quarter
Aug 10
Full
Aug 17
Last Quarter
Aug 25
New

Today's Extremes

State Highs State Lows

Community

WunderPhotos

Upload Photos

1,739,504 photos uploaded!

Nearby

Snow Depth

Station Depth Elevation
No new snow has been reported.

Earthquake Activity

City Distance Mag. Time & Date
No recent earthquake activity has been reported nearby.
Minimum magnitude displayed is 2.5.

Coastal Water Temperatures

Place Temperature
No Stations Reporting

Nearby Weather Stations

Station Location Temp. Dew Point Humidity Wind Precip. Elev Updated Type
Bethany, Bethany, MO 66.9 °F 62 °F 85% SW  at  0.0 mph 0.00 in / hr 1017 ft 10:53 PM CDT Rapid Fire

Show More Stations Show Fewer Stations